Terminal Aerodrome Forecast
Issued by NWS Cleveland, OH

Home | Current Version | Previous Version | Text Only | Print | Product List | Glossary Off
Versions: 1 2 3 4 5 6 7 8 9 10 11 12 13 14 15 16

000
FTUS41 KCLE 222300
TAFMFD
TAF
KMFD 222339Z 2300/2324 27012KT P6SM BKN040 BKN060
     FM231200 29012G20KT P6SM BKN025 OVC035
     FM231600 29015G25KT P6SM BKN035 OVC050=

USA.gov is the U.S. government's official web portal to all federal, state and local government web resources and services.